sensor_id;sensor_type;location;lat;lon;timestamp;temperature;humidity
31991;DHT22;18508;49.386;8.370;2023-10-08T00:02:25;16.30;1.00
31991;DHT22;18508;49.386;8.370;2023-10-08T00:04:54;16.30;1.00
31991;DHT22;18508;49.386;8.370;2023-10-08T00:07:22;16.30;1.00
31991;DHT22;18508;49.386;8.370;2023-10-08T00:09:51;16.00;1.00
31991;DHT22;18508;49.386;8.370;2023-10-08T00:12:20;16.20;1.00
31991;DHT22;18508;49.386;8.370;2023-10-08T00:14:49;16.20;1.00
31991;DHT22;18508;49.386;8.370;2023-10-08T00:17:20;16.20;1.00
31991;DHT22;18508;49.386;8.370;2023-10-08T00:19:48;16.20;1.00
31991;DHT22;18508;49.386;8.370;2023-10-08T00:22:20;16.10;1.00
31991;DHT22;18508;49.386;8.370;2023-10-08T00:24:51;16.10;1.00
31991;DHT22;18508;49.386;8.370;2023-10-08T00:27:24;16.10;1.00
31991;DHT22;18508;49.386;8.370;2023-10-08T00:29:55;16.00;1.00
31991;DHT22;18508;49.386;8.370;2023-10-08T00:32:23;16.00;1.00
31991;DHT22;18508;49.386;8.370;2023-10-08T00:34:52;16.00;1.00
31991;DHT22;18508;49.386;8.370;2023-10-08T00:37:21;16.00;1.00
31991;DHT22;18508;49.386;8.370;2023-10-08T00:39:53;15.90;1.00
31991;DHT22;18508;49.386;8.370;2023-10-08T00:42:23;15.90;1.00
31991;DHT22;18508;49.386;8.370;2023-10-08T00:44:52;15.90;1.00
31991;DHT22;18508;49.386;8.370;2023-10-08T00:47:22;15.80;1.00
31991;DHT22;18508;49.386;8.370;2023-10-08T00:49:53;15.80;1.00
31991;DHT22;18508;49.386;8.370;2023-10-08T00:52:35;15.70;1.00
31991;DHT22;18508;49.386;8.370;2023-10-08T00:55:12;15.70;1.00
31991;DHT22;18508;49.386;8.370;2023-10-08T00:57:56;15.70;1.00
31991;DHT22;18508;49.386;8.370;2023-10-08T01:00:26;15.70;1.00
31991;DHT22;18508;49.386;8.370;2023-10-08T01:03:07;15.60;1.00
31991;DHT22;18508;49.386;8.370;2023-10-08T01:05:43;15.70;1.00
31991;DHT22;18508;49.386;8.370;2023-10-08T01:08:15;15.60;1.00
31991;DHT22;18508;49.386;8.370;2023-10-08T01:10:50;15.70;1.00
31991;DHT22;18508;49.386;8.370;2023-10-08T01:13:30;15.50;1.00
31991;DHT22;18508;49.386;8.370;2023-10-08T01:16:03;15.50;1.00
31991;DHT22;18508;49.386;8.370;2023-10-08T01:18:33;15.40;4.70
31991;DHT22;18508;49.386;8.370;2023-10-08T01:21:02;15.20;10.40
31991;DHT22;18508;49.386;8.370;2023-10-08T01:23:37;15.30;47.10
31991;DHT22;18508;49.386;8.370;2023-10-08T01:26:06;15.10;41.60
31991;DHT22;18508;49.386;8.370;2023-10-08T01:28:41;15.00;51.30
31991;DHT22;18508;49.386;8.370;2023-10-08T01:31:10;15.00;54.10
31991;DHT22;18508;49.386;8.370;2023-10-08T01:33:40;15.00;44.10
31991;DHT22;18508;49.386;8.370;2023-10-08T01:36:14;14.90;57.20
31991;DHT22;18508;49.386;8.370;2023-10-08T01:38:44;14.90;64.40
31991;DHT22;18508;49.386;8.370;2023-10-08T01:41:15;14.90;54.00
31991;DHT22;18508;49.386;8.370;2023-10-08T01:43:47;14.80;58.00
31991;DHT22;18508;49.386;8.370;2023-10-08T01:46:16;14.80;69.50
31991;DHT22;18508;49.386;8.370;2023-10-08T01:48:49;14.80;89.50
31991;DHT22;18508;49.386;8.370;2023-10-08T01:51:24;14.70;93.20
31991;DHT22;18508;49.386;8.370;2023-10-08T01:54:04;14.40;99.20
31991;DHT22;18508;49.386;8.370;2023-10-08T01:56:39;14.60;99.90
31991;DHT22;18508;49.386;8.370;2023-10-08T01:59:10;14.50;99.90
31991;DHT22;18508;49.386;8.370;2023-10-08T02:01:41;14.50;99.90
31991;DHT22;18508;49.386;8.370;2023-10-08T02:04:10;14.40;99.90
31991;DHT22;18508;49.386;8.370;2023-10-08T02:06:41;14.40;99.90
31991;DHT22;18508;49.386;8.370;2023-10-08T02:09:11;14.30;99.90
31991;DHT22;18508;49.386;8.370;2023-10-08T02:11:42;14.20;99.90
31991;DHT22;18508;49.386;8.370;2023-10-08T02:14:11;14.20;99.90
31991;DHT22;18508;49.386;8.370;2023-10-08T02:16:42;14.10;99.90
31991;DHT22;18508;49.386;8.370;2023-10-08T02:19:11;14.10;99.90
31991;DHT22;18508;49.386;8.370;2023-10-08T02:21:40;14.10;99.90
31991;DHT22;18508;49.386;8.370;2023-10-08T02:24:14;14.00;99.90
31991;DHT22;18508;49.386;8.370;2023-10-08T02:26:42;14.00;99.90
31991;DHT22;18508;49.386;8.370;2023-10-08T02:29:10;14.00;99.90
31991;DHT22;18508;49.386;8.370;2023-10-08T02:31:39;13.90;99.90
31991;DHT22;18508;49.386;8.370;2023-10-08T02:34:08;13.90;99.90
31991;DHT22;18508;49.386;8.370;2023-10-08T02:36:40;13.90;99.90
31991;DHT22;18508;49.386;8.370;2023-10-08T02:39:10;13.90;99.90
31991;DHT22;18508;49.386;8.370;2023-10-08T02:41:46;13.80;99.90
31991;DHT22;18508;49.386;8.370;2023-10-08T02:44:14;13.80;99.90
31991;DHT22;18508;49.386;8.370;2023-10-08T02:46:45;13.80;99.90
31991;DHT22;18508;49.386;8.370;2023-10-08T02:49:16;13.80;99.90
31991;DHT22;18508;49.386;8.370;2023-10-08T02:51:48;13.80;99.90
31991;DHT22;18508;49.386;8.370;2023-10-08T02:54:17;13.70;99.90
31991;DHT22;18508;49.386;8.370;2023-10-08T02:56:54;13.70;99.90
31991;DHT22;18508;49.386;8.370;2023-10-08T02:59:29;13.70;99.90
31991;DHT22;18508;49.386;8.370;2023-10-08T03:02:07;13.70;99.90
31991;DHT22;18508;49.386;8.370;2023-10-08T03:04:43;13.60;99.90
31991;DHT22;18508;49.386;8.370;2023-10-08T03:07:13;13.60;99.90
31991;DHT22;18508;49.386;8.370;2023-10-08T03:09:50;13.60;99.90
31991;DHT22;18508;49.386;8.370;2023-10-08T03:12:32;13.70;99.90
31991;DHT22;18508;49.386;8.370;2023-10-08T03:15:02;13.70;90.50
31991;DHT22;18508;49.386;8.370;2023-10-08T03:17:40;13.70;59.90
31991;DHT22;18508;49.386;8.370;2023-10-08T03:20:16;13.70;24.70
31991;DHT22;18508;49.386;8.370;2023-10-08T03:23:06;13.80;1.00
31991;DHT22;18508;49.386;8.370;2023-10-08T03:25:41;13.80;1.00
31991;DHT22;18508;49.386;8.370;2023-10-08T03:28:11;13.70;4.90
31991;DHT22;18508;49.386;8.370;2023-10-08T03:30:43;13.70;14.00
31991;DHT22;18508;49.386;8.370;2023-10-08T03:33:17;13.60;20.50
31991;DHT22;18508;49.386;8.370;2023-10-08T03:35:51;13.60;21.00
31991;DHT22;18508;49.386;8.370;2023-10-08T03:38:22;13.60;16.30
31991;DHT22;18508;49.386;8.370;2023-10-08T03:41:06;13.60;21.60
31991;DHT22;18508;49.386;8.370;2023-10-08T03:43:38;13.60;33.80
31991;DHT22;18508;49.386;8.370;2023-10-08T03:46:20;13.50;39.20
31991;DHT22;18508;49.386;8.370;2023-10-08T03:48:51;13.50;39.00
31991;DHT22;18508;49.386;8.370;2023-10-08T03:51:23;13.50;32.60
31991;DHT22;18508;49.386;8.370;2023-10-08T03:53:55;13.60;23.80
31991;DHT22;18508;49.386;8.370;2023-10-08T03:56:34;13.60;11.10
31991;DHT22;18508;49.386;8.370;2023-10-08T03:59:05;13.60;1.00
31991;DHT22;18508;49.386;8.370;2023-10-08T04:01:41;13.60;1.00
31991;DHT22;18508;49.386;8.370;2023-10-08T04:04:10;13.60;1.00
31991;DHT22;18508;49.386;8.370;2023-10-08T04:06:42;13.50;1.00
31991;DHT22;18508;49.386;8.370;2023-10-08T04:09:17;13.50;1.00
31991;DHT22;18508;49.386;8.370;2023-10-08T04:11:51;13.40;1.00
31991;DHT22;18508;49.386;8.370;2023-10-08T04:14:24;13.40;15.00
31991;DHT22;18508;49.386;8.370;2023-10-08T04:16:54;13.30;23.70
31991;DHT22;18508;49.386;8.370;2023-10-08T04:19:22;13.20;46.70
31991;DHT22;18508;49.386;8.370;2023-10-08T04:21:54;13.20;79.30
31991;DHT22;18508;49.386;8.370;2023-10-08T04:24:24;13.20;85.30
31991;DHT22;18508;49.386;8.370;2023-10-08T04:27:02;13.20;94.60
31991;DHT22;18508;49.386;8.370;2023-10-08T04:29:34;13.10;93.80
31991;DHT22;18508;49.386;8.370;2023-10-08T04:32:05;13.10;94.30
31991;DHT22;18508;49.386;8.370;2023-10-08T04:34:39;13.10;99.90
31991;DHT22;18508;49.386;8.370;2023-10-08T04:37:12;13.10;99.90
31991;DHT22;18508;49.386;8.370;2023-10-08T04:39:46;13.10;99.90
31991;DHT22;18508;49.386;8.370;2023-10-08T04:42:21;13.10;99.90
31991;DHT22;18508;49.386;8.370;2023-10-08T04:44:55;13.00;99.90
31991;DHT22;18508;49.386;8.370;2023-10-08T04:47:25;13.00;99.90
31991;DHT22;18508;49.386;8.370;2023-10-08T04:50:00;13.00;99.90
31991;DHT22;18508;49.386;8.370;2023-10-08T04:52:31;13.00;99.90
31991;DHT22;18508;49.386;8.370;2023-10-08T04:55:02;12.90;99.90
31991;DHT22;18508;49.386;8.370;2023-10-08T04:57:44;12.90;99.90
31991;DHT22;18508;49.386;8.370;2023-10-08T05:00:14;12.90;99.90
31991;DHT22;18508;49.386;8.370;2023-10-08T05:02:43;12.80;99.90
31991;DHT22;18508;49.386;8.370;2023-10-08T05:05:17;12.80;99.90
31991;DHT22;18508;49.386;8.370;2023-10-08T05:07:56;12.80;99.90
31991;DHT22;18508;49.386;8.370;2023-10-08T05:10:43;12.80;99.90
31991;DHT22;18508;49.386;8.370;2023-10-08T05:13:29;12.70;99.90
31991;DHT22;18508;49.386;8.370;2023-10-08T05:16:24;12.70;99.90
31991;DHT22;18508;49.386;8.370;2023-10-08T05:19:04;12.70;99.90
31991;DHT22;18508;49.386;8.370;2023-10-08T05:21:51;12.70;99.90
31991;DHT22;18508;49.386;8.370;2023-10-08T05:24:34;12.70;99.90
31991;DHT22;18508;49.386;8.370;2023-10-08T05:27:06;12.70;99.90
31991;DHT22;18508;49.386;8.370;2023-10-08T05:29:51;12.70;99.90
31991;DHT22;18508;49.386;8.370;2023-10-08T05:32:37;12.70;99.90
31991;DHT22;18508;49.386;8.370;2023-10-08T05:35:13;12.70;99.90
31991;DHT22;18508;49.386;8.370;2023-10-08T05:38:17;12.70;99.90
31991;DHT22;18508;49.386;8.370;2023-10-08T05:41:05;12.70;99.90
31991;DHT22;18508;49.386;8.370;2023-10-08T05:43:55;12.80;99.90
31991;DHT22;18508;49.386;8.370;2023-10-08T05:46:41;12.80;99.90
31991;DHT22;18508;49.386;8.370;2023-10-08T05:49:34;12.90;99.90
31991;DHT22;18508;49.386;8.370;2023-10-08T05:52:21;13.00;99.90
31991;DHT22;18508;49.386;8.370;2023-10-08T05:55:08;13.00;51.90
31991;DHT22;18508;49.386;8.370;2023-10-08T05:57:54;13.10;34.00
31991;DHT22;18508;49.386;8.370;2023-10-08T06:00:41;13.10;25.60
31991;DHT22;18508;49.386;8.370;2023-10-08T06:03:32;13.10;15.00
31991;DHT22;18508;49.386;8.370;2023-10-08T06:06:07;13.00;34.00
31991;DHT22;18508;49.386;8.370;2023-10-08T06:08:49;13.20;27.30
31991;DHT22;18508;49.386;8.370;2023-10-08T06:11:34;13.10;43.30
31991;DHT22;18508;49.386;8.370;2023-10-08T06:14:12;13.20;18.50
31991;DHT22;18508;49.386;8.370;2023-10-08T06:16:55;13.20;16.80
31991;DHT22;18508;49.386;8.370;2023-10-08T06:19:40;13.20;11.10
31991;DHT22;18508;49.386;8.370;2023-10-08T06:22:11;13.30;16.90
31991;DHT22;18508;49.386;8.370;2023-10-08T06:24:38;13.20;13.00
31991;DHT22;18508;49.386;8.370;2023-10-08T06:27:09;13.40;10.50
31991;DHT22;18508;49.386;8.370;2023-10-08T06:29:43;13.40;7.20
31991;DHT22;18508;49.386;8.370;2023-10-08T06:32:12;13.50;1.00
31991;DHT22;18508;49.386;8.370;2023-10-08T06:34:40;13.60;1.00
31991;DHT22;18508;49.386;8.370;2023-10-08T06:37:10;13.70;1.00
31991;DHT22;18508;49.386;8.370;2023-10-08T06:39:42;13.80;1.00
31991;DHT22;18508;49.386;8.370;2023-10-08T06:42:24;13.90;1.00
31991;DHT22;18508;49.386;8.370;2023-10-08T06:44:54;14.00;1.00
31991;DHT22;18508;49.386;8.370;2023-10-08T06:47:25;14.10;1.00
31991;DHT22;18508;49.386;8.370;2023-10-08T06:49:53;14.10;1.00
31991;DHT22;18508;49.386;8.370;2023-10-08T06:52:25;14.30;1.00
31991;DHT22;18508;49.386;8.370;2023-10-08T06:54:56;14.30;1.00
31991;DHT22;18508;49.386;8.370;2023-10-08T06:57:24;14.40;1.00
31991;DHT22;18508;49.386;8.370;2023-10-08T06:59:53;14.40;1.00
31991;DHT22;18508;49.386;8.370;2023-10-08T07:02:22;14.50;1.00
31991;DHT22;18508;49.386;8.370;2023-10-08T07:04:53;14.60;1.00
31991;DHT22;18508;49.386;8.370;2023-10-08T07:07:22;14.60;1.00
31991;DHT22;18508;49.386;8.370;2023-10-08T07:09:51;14.70;1.00
31991;DHT22;18508;49.386;8.370;2023-10-08T07:12:23;14.80;1.00
31991;DHT22;18508;49.386;8.370;2023-10-08T07:14:51;14.80;1.00
31991;DHT22;18508;49.386;8.370;2023-10-08T07:17:21;14.90;1.00
31991;DHT22;18508;49.386;8.370;2023-10-08T07:19:51;15.00;1.00
31991;DHT22;18508;49.386;8.370;2023-10-08T07:22:20;15.10;1.00
31991;DHT22;18508;49.386;8.370;2023-10-08T07:24:52;15.10;1.00
31991;DHT22;18508;49.386;8.370;2023-10-08T07:27:26;15.20;1.00
31991;DHT22;18508;49.386;8.370;2023-10-08T07:30:05;15.30;1.00
31991;DHT22;18508;49.386;8.370;2023-10-08T07:32:37;15.50;1.00
31991;DHT22;18508;49.386;8.370;2023-10-08T07:35:06;15.60;1.00
31991;DHT22;18508;49.386;8.370;2023-10-08T07:37:55;15.80;1.00
31991;DHT22;18508;49.386;8.370;2023-10-08T07:40:27;15.90;1.00
31991;DHT22;18508;49.386;8.370;2023-10-08T07:42:58;16.00;1.00
31991;DHT22;18508;49.386;8.370;2023-10-08T07:45:35;16.00;1.00
31991;DHT22;18508;49.386;8.370;2023-10-08T07:48:04;16.20;1.00
31991;DHT22;18508;49.386;8.370;2023-10-08T07:50:41;16.40;1.00
31991;DHT22;18508;49.386;8.370;2023-10-08T07:53:10;16.60;1.00
31991;DHT22;18508;49.386;8.370;2023-10-08T07:55:47;16.80;1.00
31991;DHT22;18508;49.386;8.370;2023-10-08T07:58:17;17.10;1.00
31991;DHT22;18508;49.386;8.370;2023-10-08T08:00:46;17.20;1.00
31991;DHT22;18508;49.386;8.370;2023-10-08T08:03:20;17.30;1.00
31991;DHT22;18508;49.386;8.370;2023-10-08T08:05:50;17.40;1.70
31991;DHT22;18508;49.386;8.370;2023-10-08T08:08:21;17.50;1.00
31991;DHT22;18508;49.386;8.370;2023-10-08T08:10:52;17.90;1.00
31991;DHT22;18508;49.386;8.370;2023-10-08T08:13:25;17.60;1.00
31991;DHT22;18508;49.386;8.370;2023-10-08T08:15:56;17.60;1.00
31991;DHT22;18508;49.386;8.370;2023-10-08T08:18:38;17.80;1.00
31991;DHT22;18508;49.386;8.370;2023-10-08T08:21:09;17.70;1.00
31991;DHT22;18508;49.386;8.370;2023-10-08T08:23:42;17.90;18.60
31991;DHT22;18508;49.386;8.370;2023-10-08T08:26:17;18.00;1.00
31991;DHT22;18508;49.386;8.370;2023-10-08T08:29:00;18.10;46.60
31991;DHT22;18508;49.386;8.370;2023-10-08T08:31:30;18.30;15.30
31991;DHT22;18508;49.386;8.370;2023-10-08T08:33:59;18.40;21.70
31991;DHT22;18508;49.386;8.370;2023-10-08T08:36:35;18.50;22.90
31991;DHT22;18508;49.386;8.370;2023-10-08T08:39:06;18.50;55.30
31991;DHT22;18508;49.386;8.370;2023-10-08T08:41:38;18.70;3.30
31991;DHT22;18508;49.386;8.370;2023-10-08T08:44:07;18.70;1.00
31991;DHT22;18508;49.386;8.370;2023-10-08T08:46:38;18.80;1.00
31991;DHT22;18508;49.386;8.370;2023-10-08T08:49:08;18.90;99.90
31991;DHT22;18508;49.386;8.370;2023-10-08T08:51:36;19.00;56.80
31991;DHT22;18508;49.386;8.370;2023-10-08T08:54:05;19.00;99.90
31991;DHT22;18508;49.386;8.370;2023-10-08T08:56:34;19.10;81.80
31991;DHT22;18508;49.386;8.370;2023-10-08T08:59:07;19.20;99.90
31991;DHT22;18508;49.386;8.370;2023-10-08T09:01:39;19.40;99.90
31991;DHT22;18508;49.386;8.370;2023-10-08T09:04:09;19.40;99.90
31991;DHT22;18508;49.386;8.370;2023-10-08T09:06:43;19.50;99.90
31991;DHT22;18508;49.386;8.370;2023-10-08T09:09:12;19.40;99.90
31991;DHT22;18508;49.386;8.370;2023-10-08T09:11:50;19.70;48.50
31991;DHT22;18508;49.386;8.370;2023-10-08T09:14:23;19.80;99.90
31991;DHT22;18508;49.386;8.370;2023-10-08T09:16:53;19.90;72.70
31991;DHT22;18508;49.386;8.370;2023-10-08T09:19:23;19.70;80.00
31991;DHT22;18508;49.386;8.370;2023-10-08T09:22:02;19.80;91.70
31991;DHT22;18508;49.386;8.370;2023-10-08T09:24:33;20.10;99.90
31991;DHT22;18508;49.386;8.370;2023-10-08T09:27:04;20.10;99.90
31991;DHT22;18508;49.386;8.370;2023-10-08T09:29:35;20.20;99.90
31991;DHT22;18508;49.386;8.370;2023-10-08T09:32:11;20.40;99.90
31991;DHT22;18508;49.386;8.370;2023-10-08T09:34:42;20.40;99.90
31991;DHT22;18508;49.386;8.370;2023-10-08T09:37:11;20.40;99.90
31991;DHT22;18508;49.386;8.370;2023-10-08T09:39:41;20.50;99.90
31991;DHT22;18508;49.386;8.370;2023-10-08T09:42:12;20.60;99.90
31991;DHT22;18508;49.386;8.370;2023-10-08T09:44:43;20.60;99.90
31991;DHT22;18508;49.386;8.370;2023-10-08T09:47:16;20.70;99.90
31991;DHT22;18508;49.386;8.370;2023-10-08T09:49:56;20.70;99.90
31991;DHT22;18508;49.386;8.370;2023-10-08T09:52:31;20.60;99.90
31991;DHT22;18508;49.386;8.370;2023-10-08T09:55:07;20.70;99.90
31991;DHT22;18508;49.386;8.370;2023-10-08T09:57:39;20.90;99.90
31991;DHT22;18508;49.386;8.370;2023-10-08T10:00:09;21.10;99.90
31991;DHT22;18508;49.386;8.370;2023-10-08T10:02:42;20.80;99.90
31991;DHT22;18508;49.386;8.370;2023-10-08T10:05:11;20.80;99.90
31991;DHT22;18508;49.386;8.370;2023-10-08T10:07:41;20.70;99.90
31991;DHT22;18508;49.386;8.370;2023-10-08T10:10:25;20.90;99.90
31991;DHT22;18508;49.386;8.370;2023-10-08T10:12:57;20.70;99.90
31991;DHT22;18508;49.386;8.370;2023-10-08T10:15:28;20.80;99.90
31991;DHT22;18508;49.386;8.370;2023-10-08T10:18:02;20.80;99.90
31991;DHT22;18508;49.386;8.370;2023-10-08T10:20:45;21.00;99.90
31991;DHT22;18508;49.386;8.370;2023-10-08T10:23:36;21.20;99.90
31991;DHT22;18508;49.386;8.370;2023-10-08T10:26:04;21.50;99.90
31991;DHT22;18508;49.386;8.370;2023-10-08T10:28:36;21.70;99.90
31991;DHT22;18508;49.386;8.370;2023-10-08T10:31:06;21.60;99.90
31991;DHT22;18508;49.386;8.370;2023-10-08T10:33:34;21.60;99.90
31991;DHT22;18508;49.386;8.370;2023-10-08T10:36:07;21.80;99.90
31991;DHT22;18508;49.386;8.370;2023-10-08T10:38:37;22.00;99.90
31991;DHT22;18508;49.386;8.370;2023-10-08T10:41:09;22.20;99.90
31991;DHT22;18508;49.386;8.370;2023-10-08T10:43:37;22.20;99.90
31991;DHT22;18508;49.386;8.370;2023-10-08T10:46:08;22.30;99.90
31991;DHT22;18508;49.386;8.370;2023-10-08T10:48:50;22.50;99.90
31991;DHT22;18508;49.386;8.370;2023-10-08T10:51:33;22.50;99.90
31991;DHT22;18508;49.386;8.370;2023-10-08T10:54:03;22.60;99.90
31991;DHT22;18508;49.386;8.370;2023-10-08T10:56:35;22.80;99.90
31991;DHT22;18508;49.386;8.370;2023-10-08T10:59:10;22.80;99.90
31991;DHT22;18508;49.386;8.370;2023-10-08T11:01:48;22.60;99.90
31991;DHT22;18508;49.386;8.370;2023-10-08T11:04:19;22.50;99.90
31991;DHT22;18508;49.386;8.370;2023-10-08T11:06:56;22.50;99.90
31991;DHT22;18508;49.386;8.370;2023-10-08T11:09:26;22.40;99.90
31991;DHT22;18508;49.386;8.370;2023-10-08T11:12:06;22.40;99.90
31991;DHT22;18508;49.386;8.370;2023-10-08T11:14:38;22.30;99.90
31991;DHT22;18508;49.386;8.370;2023-10-08T11:17:13;22.30;99.90
31991;DHT22;18508;49.386;8.370;2023-10-08T11:19:43;22.30;99.90
31991;DHT22;18508;49.386;8.370;2023-10-08T11:22:13;22.20;99.90
31991;DHT22;18508;49.386;8.370;2023-10-08T11:24:45;22.00;99.90
31991;DHT22;18508;49.386;8.370;2023-10-08T11:27:17;21.90;99.90
31991;DHT22;18508;49.386;8.370;2023-10-08T11:29:56;22.10;99.90
31991;DHT22;18508;49.386;8.370;2023-10-08T11:32:29;22.30;99.90
31991;DHT22;18508;49.386;8.370;2023-10-08T11:35:00;22.50;99.90
31991;DHT22;18508;49.386;8.370;2023-10-08T11:37:45;22.70;99.90
31991;DHT22;18508;49.386;8.370;2023-10-08T11:40:22;22.90;99.90
31991;DHT22;18508;49.386;8.370;2023-10-08T11:42:56;22.90;99.90
31991;DHT22;18508;49.386;8.370;2023-10-08T11:45:27;23.10;99.90
31991;DHT22;18508;49.386;8.370;2023-10-08T11:48:07;23.20;99.90
31991;DHT22;18508;49.386;8.370;2023-10-08T11:50:40;23.40;99.90
31991;DHT22;18508;49.386;8.370;2023-10-08T11:53:10;23.60;99.90
31991;DHT22;18508;49.386;8.370;2023-10-08T11:55:38;23.50;99.90
31991;DHT22;18508;49.386;8.370;2023-10-08T11:58:07;23.60;99.90
31991;DHT22;18508;49.386;8.370;2023-10-08T12:00:39;23.70;99.90
31991;DHT22;18508;49.386;8.370;2023-10-08T12:03:15;23.80;99.90
31991;DHT22;18508;49.386;8.370;2023-10-08T12:05:48;23.90;99.90
31991;DHT22;18508;49.386;8.370;2023-10-08T12:08:19;23.90;99.90
31991;DHT22;18508;49.386;8.370;2023-10-08T12:10:49;24.10;99.90
31991;DHT22;18508;49.386;8.370;2023-10-08T12:13:22;24.10;99.90
31991;DHT22;18508;49.386;8.370;2023-10-08T12:15:53;24.20;99.90
31991;DHT22;18508;49.386;8.370;2023-10-08T12:18:34;24.20;99.90
31991;DHT22;18508;49.386;8.370;2023-10-08T12:21:10;24.30;99.90
31991;DHT22;18508;49.386;8.370;2023-10-08T12:23:43;24.40;99.90
31991;DHT22;18508;49.386;8.370;2023-10-08T12:26:13;24.60;99.90
31991;DHT22;18508;49.386;8.370;2023-10-08T12:28:46;24.60;99.90
31991;DHT22;18508;49.386;8.370;2023-10-08T12:31:17;24.40;99.90
31991;DHT22;18508;49.386;8.370;2023-10-08T12:33:52;24.60;99.90
31991;DHT22;18508;49.386;8.370;2023-10-08T12:36:21;24.60;99.90
31991;DHT22;18508;49.386;8.370;2023-10-08T12:38:51;24.70;99.90
31991;DHT22;18508;49.386;8.370;2023-10-08T12:41:27;24.80;99.90
31991;DHT22;18508;49.386;8.370;2023-10-08T12:43:55;24.90;99.90
31991;DHT22;18508;49.386;8.370;2023-10-08T12:46:26;24.90;99.90
31991;DHT22;18508;49.386;8.370;2023-10-08T12:48:59;24.90;99.90
31991;DHT22;18508;49.386;8.370;2023-10-08T12:51:29;25.10;99.90
31991;DHT22;18508;49.386;8.370;2023-10-08T12:54:00;25.20;99.90
31991;DHT22;18508;49.386;8.370;2023-10-08T12:56:35;25.30;99.90
31991;DHT22;18508;49.386;8.370;2023-10-08T12:59:06;25.20;99.90
31991;DHT22;18508;49.386;8.370;2023-10-08T13:01:35;25.60;99.90
31991;DHT22;18508;49.386;8.370;2023-10-08T13:04:10;25.10;99.90
31991;DHT22;18508;49.386;8.370;2023-10-08T13:06:43;25.20;99.90
31991;DHT22;18508;49.386;8.370;2023-10-08T13:09:16;25.10;99.90
31991;DHT22;18508;49.386;8.370;2023-10-08T13:11:44;25.20;99.90
31991;DHT22;18508;49.386;8.370;2023-10-08T13:14:12;25.20;99.90
31991;DHT22;18508;49.386;8.370;2023-10-08T13:16:41;25.40;99.90
31991;DHT22;18508;49.386;8.370;2023-10-08T13:19:13;25.50;99.90
31991;DHT22;18508;49.386;8.370;2023-10-08T13:21:42;25.60;99.90
31991;DHT22;18508;49.386;8.370;2023-10-08T13:24:11;25.60;99.90
31991;DHT22;18508;49.386;8.370;2023-10-08T13:26:40;25.90;99.90
31991;DHT22;18508;49.386;8.370;2023-10-08T13:29:14;25.60;99.90
31991;DHT22;18508;49.386;8.370;2023-10-08T13:31:45;25.60;99.90
31991;DHT22;18508;49.386;8.370;2023-10-08T13:34:15;25.70;99.90
31991;DHT22;18508;49.386;8.370;2023-10-08T13:36:45;25.90;99.90
31991;DHT22;18508;49.386;8.370;2023-10-08T13:39:16;26.00;99.90
31991;DHT22;18508;49.386;8.370;2023-10-08T13:41:46;26.00;99.90
31991;DHT22;18508;49.386;8.370;2023-10-08T13:44:16;26.00;99.90
31991;DHT22;18508;49.386;8.370;2023-10-08T13:46:46;26.30;99.90
31991;DHT22;18508;49.386;8.370;2023-10-08T13:49:20;26.40;99.90
31991;DHT22;18508;49.386;8.370;2023-10-08T13:51:48;26.10;99.90
31991;DHT22;18508;49.386;8.370;2023-10-08T13:54:23;26.00;99.90
31991;DHT22;18508;49.386;8.370;2023-10-08T13:56:55;25.80;99.90
31991;DHT22;18508;49.386;8.370;2023-10-08T13:59:26;25.50;99.90
31991;DHT22;18508;49.386;8.370;2023-10-08T14:01:57;25.30;99.90
31991;DHT22;18508;49.386;8.370;2023-10-08T14:04:30;25.50;99.90
31991;DHT22;18508;49.386;8.370;2023-10-08T14:07:02;25.60;99.90
31991;DHT22;18508;49.386;8.370;2023-10-08T14:09:30;25.80;99.90
31991;DHT22;18508;49.386;8.370;2023-10-08T14:12:04;26.20;99.90
31991;DHT22;18508;49.386;8.370;2023-10-08T14:14:33;26.40;99.90
31991;DHT22;18508;49.386;8.370;2023-10-08T14:17:02;26.50;99.90
31991;DHT22;18508;49.386;8.370;2023-10-08T14:19:36;26.50;99.90
31991;DHT22;18508;49.386;8.370;2023-10-08T14:22:13;26.10;99.90
31991;DHT22;18508;49.386;8.370;2023-10-08T14:24:42;25.90;99.90
31991;DHT22;18508;49.386;8.370;2023-10-08T14:27:12;25.80;99.90
31991;DHT22;18508;49.386;8.370;2023-10-08T14:29:52;25.70;99.90
31991;DHT22;18508;49.386;8.370;2023-10-08T14:32:20;25.60;99.90
31991;DHT22;18508;49.386;8.370;2023-10-08T14:34:52;25.60;99.90
31991;DHT22;18508;49.386;8.370;2023-10-08T14:37:38;26.00;99.90
31991;DHT22;18508;49.386;8.370;2023-10-08T14:40:23;26.40;99.90
31991;DHT22;18508;49.386;8.370;2023-10-08T14:43:09;26.80;99.90
31991;DHT22;18508;49.386;8.370;2023-10-08T14:45:38;27.10;99.90
31991;DHT22;18508;49.386;8.370;2023-10-08T14:48:08;27.00;99.90
31991;DHT22;18508;49.386;8.370;2023-10-08T14:50:40;27.00;99.90
31991;DHT22;18508;49.386;8.370;2023-10-08T14:53:09;27.10;99.90
31991;DHT22;18508;49.386;8.370;2023-10-08T14:55:38;27.00;99.90
31991;DHT22;18508;49.386;8.370;2023-10-08T14:58:07;26.60;99.90
31991;DHT22;18508;49.386;8.370;2023-10-08T15:00:36;26.60;99.90
31991;DHT22;18508;49.386;8.370;2023-10-08T15:03:05;26.60;99.90
31991;DHT22;18508;49.386;8.370;2023-10-08T15:05:35;26.50;99.90
31991;DHT22;18508;49.386;8.370;2023-10-08T15:08:08;26.70;99.90
31991;DHT22;18508;49.386;8.370;2023-10-08T15:10:38;27.10;99.90
31991;DHT22;18508;49.386;8.370;2023-10-08T15:13:07;27.00;99.90
31991;DHT22;18508;49.386;8.370;2023-10-08T15:15:36;27.10;99.90
31991;DHT22;18508;49.386;8.370;2023-10-08T15:18:07;27.00;99.90
31991;DHT22;18508;49.386;8.370;2023-10-08T15:20:39;27.00;99.90
31991;DHT22;18508;49.386;8.370;2023-10-08T15:23:09;27.10;99.90
31991;DHT22;18508;49.386;8.370;2023-10-08T15:25:39;27.10;99.90
31991;DHT22;18508;49.386;8.370;2023-10-08T15:28:10;27.10;99.90
31991;DHT22;18508;49.386;8.370;2023-10-08T15:30:39;26.80;99.90
31991;DHT22;18508;49.386;8.370;2023-10-08T15:33:09;26.40;99.90
31991;DHT22;18508;49.386;8.370;2023-10-08T15:35:41;26.20;99.90
31991;DHT22;18508;49.386;8.370;2023-10-08T15:38:11;26.30;99.90
31991;DHT22;18508;49.386;8.370;2023-10-08T15:40:39;25.80;99.90
31991;DHT22;18508;49.386;8.370;2023-10-08T15:43:09;25.50;99.90
31991;DHT22;18508;49.386;8.370;2023-10-08T15:45:39;25.30;99.90
31991;DHT22;18508;49.386;8.370;2023-10-08T15:48:08;25.00;99.90
31991;DHT22;18508;49.386;8.370;2023-10-08T15:50:36;24.80;99.90
31991;DHT22;18508;49.386;8.370;2023-10-08T15:53:07;24.50;99.80
31991;DHT22;18508;49.386;8.370;2023-10-08T15:55:37;24.40;56.30
31991;DHT22;18508;49.386;8.370;2023-10-08T15:58:09;24.10;8.10
31991;DHT22;18508;49.386;8.370;2023-10-08T16:00:37;23.90;1.00
31991;DHT22;18508;49.386;8.370;2023-10-08T16:03:08;23.70;1.00
31991;DHT22;18508;49.386;8.370;2023-10-08T16:05:40;23.60;1.00
31991;DHT22;18508;49.386;8.370;2023-10-08T16:08:09;23.50;1.00
31991;DHT22;18508;49.386;8.370;2023-10-08T16:10:41;23.30;1.00
31991;DHT22;18508;49.386;8.370;2023-10-08T16:13:09;23.20;1.00